Time;durP1;ratioP1;P1;durP2;ratioP2;P2;SDS_P1;SDS_P2;PMS_P1;PMS_P2;Temp;Humidity;BMP_temperature;BMP_pressure;BME280_temperature;BME280_humidity;BME280_pressure;Samples;Min_cycle;Max_cycle;Signal;HPM_P1;HPM_P2
2023/11/06 21:05:49;;;;;;;;;;;25.30;51.30;;;;;;749843;19;52134;-27
2023/11/06 21:06:52;;;;;;;;;;;22.50;43.10;;;;;;3049172;19;4735;-27
2023/11/06 21:07:53;;;;;;;;;;;22.40;42.90;;;;;;3050358;19;4957;-26
2023/11/06 21:08:54;;;;;;;;;;;22.50;42.90;;;;;;3050542;19;4641;-26
2023/11/06 21:09:54;;;;;;;;;;;22.40;42.90;;;;;;3050910;19;4562;-26
2023/11/06 21:10:55;;;;;;;;;;;22.40;43.00;;;;;;3050202;19;4640;-27
2023/11/06 21:11:57;;;;;;;;;;;22.40;43.00;;;;;;3048716;19;4723;-26
2023/11/06 21:12:58;;;;;;;;;;;22.40;43.00;;;;;;3048361;19;4681;-27
2023/11/06 21:13:58;;;;;;;;;;;22.40;43.00;;;;;;3050748;19;4693;-26
2023/11/06 21:14:59;;;;;;;;;;;22.40;43.10;;;;;;3050151;19;4619;-26
2023/11/06 21:16:00;;;;;;;;;;;22.40;43.20;;;;;;3049642;19;4638;-26
2023/11/06 21:17:01;;;;;;;;;;;22.40;43.30;;;;;;3049591;19;4637;-27
2023/11/06 21:18:01;;;;;;;;;;;22.40;43.40;;;;;;3049340;19;4607;-26
2023/11/06 21:19:02;;;;;;;;;;;22.30;43.60;;;;;;3049961;19;4647;-26
2023/11/06 21:20:04;;;;;;;;;;;22.30;43.50;;;;;;3050585;19;4612;-26
2023/11/06 21:21:05;;;;;;;;;;;22.30;43.50;;;;;;3050480;19;4733;-26
2023/11/06 21:22:06;;;;;;;;;;;22.30;43.60;;;;;;3050959;19;4634;-26
2023/11/06 21:23:08;;;;;;;;;;;22.20;43.50;;;;;;3049865;19;5022;-27
2023/11/06 21:24:09;;;;;;;;;;;22.20;43.60;;;;;;3050316;19;4659;-27
2023/11/06 21:25:12;;;;;;;;;;;22.20;43.60;;;;;;3048941;19;4645;-26
2023/11/06 21:26:13;;;;;;;;;;;22.20;43.70;;;;;;3049713;19;4704;-27
2023/11/06 21:27:14;;;;;;;;;;;22.10;43.70;;;;;;3050237;19;4612;-27
2023/11/06 21:28:14;;;;;;;;;;;22.10;43.80;;;;;;3051577;19;4732;-27
2023/11/06 21:29:15;;;;;;;;;;;22.10;43.90;;;;;;3054246;19;968;-26
2023/11/06 21:30:18;;;;;;;;;;;22.10;43.90;;;;;;3052617;19;4557;-27
2023/11/06 21:31:18;;;;;;;;;;;22.00;43.90;;;;;;3052884;19;4580;-26
2023/11/06 21:32:19;;;;;;;;;;;22.00;44.00;;;;;;3051489;19;4763;-27
2023/11/06 21:33:20;;;;;;;;;;;22.00;44.00;;;;;;3051863;19;4654;-26
2023/11/06 21:34:21;;;;;;;;;;;22.00;44.10;;;;;;3051453;19;4672;-26
2023/11/06 21:35:21;;;;;;;;;;;21.90;44.10;;;;;;3051163;19;4685;-27
2023/11/06 21:36:26;;;;;;;;;;;21.90;44.10;;;;;;3053220;19;4661;-26
2023/11/06 21:37:26;;;;;;;;;;;21.90;44.20;;;;;;3053634;19;4805;-29
2023/11/06 21:38:27;;;;;;;;;;;21.90;44.20;;;;;;3052210;19;4703;-29
2023/11/06 21:39:28;;;;;;;;;;;21.90;44.20;;;;;;3053369;19;5038;-29
2023/11/06 21:40:30;;;;;;;;;;;21.90;44.20;;;;;;3051121;19;4666;-29
2023/11/06 21:41:31;;;;;;;;;;;21.90;44.30;;;;;;3051625;19;4646;-29
2023/11/06 21:42:31;;;;;;;;;;;21.90;44.30;;;;;;3053323;19;4660;-29
2023/11/06 21:43:32;;;;;;;;;;;21.90;44.40;;;;;;3053102;19;4451;-29
2023/11/06 21:44:33;;;;;;;;;;;21.90;44.30;;;;;;3052720;19;4629;-29
2023/11/06 21:45:34;;;;;;;;;;;21.80;44.30;;;;;;3052940;19;4629;-29
2023/11/06 21:46:34;;;;;;;;;;;21.80;44.30;;;;;;3052921;19;4621;-29
2023/11/06 21:47:35;;;;;;;;;;;21.80;44.40;;;;;;3052042;19;4927;-29
2023/11/06 21:48:36;;;;;;;;;;;21.80;44.40;;;;;;3051958;19;4673;-29
2023/11/06 21:49:39;;;;;;;;;;;21.80;44.40;;;;;;3051870;19;4702;-29
2023/11/06 21:50:41;;;;;;;;;;;21.80;44.40;;;;;;3053776;19;4785;-29
2023/11/06 21:51:46;;;;;;;;;;;21.80;44.40;;;;;;3052180;19;4513;-29
2023/11/06 21:52:46;;;;;;;;;;;21.80;44.50;;;;;;3051555;19;4783;-29
2023/11/06 21:53:47;;;;;;;;;;;21.80;44.40;;;;;;3051756;19;4662;-29
2023/11/06 21:54:50;;;;;;;;;;;21.80;44.50;;;;;;3053478;19;4570;-29
2023/11/06 21:55:50;;;;;;;;;;;21.80;44.70;;;;;;3053426;19;4704;-29
2023/11/06 21:56:51;;;;;;;;;;;21.80;45.20;;;;;;3051999;19;4989;-29
2023/11/06 21:57:52;;;;;;;;;;;21.70;44.40;;;;;;3053240;19;4655;-26
2023/11/06 21:58:52;;;;;;;;;;;21.70;44.40;;;;;;3052676;19;4639;-26
2023/11/06 21:59:54;;;;;;;;;;;21.80;44.50;;;;;;3051614;19;4561;-26
2023/11/06 22:00:55;;;;;;;;;;;21.70;44.40;;;;;;3053748;19;4623;-26
2023/11/06 22:01:55;;;;;;;;;;;21.70;44.50;;;;;;3053419;19;4748;-26
2023/11/06 22:02:57;;;;;;;;;;;21.70;44.50;;;;;;3054061;19;4614;-26
2023/11/06 22:03:58;;;;;;;;;;;21.70;44.50;;;;;;3054689;19;4636;-26
2023/11/06 22:04:59;;;;;;;;;;;21.70;44.50;;;;;;3051854;19;4508;-26
2023/11/06 22:05:59;;;;;;;;;;;21.70;44.60;;;;;;3052736;19;4576;-26
2023/11/06 22:07:00;;;;;;;;;;;21.70;44.50;;;;;;3052798;19;4683;-26
2023/11/06 22:08:01;;;;;;;;;;;21.70;44.50;;;;;;3052953;19;4787;-26
2023/11/06 22:09:01;;;;;;;;;;;21.70;44.70;;;;;;3053771;19;4703;-26
2023/11/06 22:10:03;;;;;;;;;;;21.70;44.90;;;;;;3053075;19;4641;-26
2023/11/06 22:11:04;;;;;;;;;;;21.70;45.00;;;;;;3053981;19;4768;-26
2023/11/06 22:12:05;;;;;;;;;;;21.70;45.10;;;;;;3052924;19;4660;-26
2023/11/06 22:13:05;;;;;;;;;;;21.60;45.10;;;;;;3052623;19;4516;-26
2023/11/06 22:14:06;;;;;;;;;;;21.60;45.00;;;;;;3052002;19;4608;-26
2023/11/06 22:15:07;;;;;;;;;;;21.60;45.00;;;;;;3052996;19;4524;-27
2023/11/06 22:16:08;;;;;;;;;;;21.70;45.00;;;;;;3051789;19;4630;-26
2023/11/06 22:17:10;;;;;;;;;;;21.70;45.00;;;;;;3053718;19;4660;-26
2023/11/06 22:18:10;;;;;;;;;;;21.70;44.90;;;;;;3051744;19;4495;-26
2023/11/06 22:19:12;;;;;;;;;;;21.70;44.90;;;;;;3053379;19;5156;-26
2023/11/06 22:20:13;;;;;;;;;;;21.70;44.90;;;;;;3053562;19;890;-26
2023/11/06 22:21:14;;;;;;;;;;;21.80;44.90;;;;;;3052515;19;4676;-26
2023/11/06 22:22:15;;;;;;;;;;;21.80;44.90;;;;;;3054108;19;4678;-26
2023/11/06 22:23:16;;;;;;;;;;;21.80;44.80;;;;;;3052052;19;4515;-26
2023/11/06 22:24:17;;;;;;;;;;;21.80;44.80;;;;;;3054337;19;4678;-26
2023/11/06 22:25:20;;;;;;;;;;;21.80;44.90;;;;;;3054242;19;4675;-26
2023/11/06 22:26:20;;;;;;;;;;;21.80;44.80;;;;;;3053388;19;4590;-26
2023/11/06 22:27:21;;;;;;;;;;;21.80;44.80;;;;;;3053082;19;4757;-26
2023/11/06 22:28:24;;;;;;;;;;;21.80;44.80;;;;;;3051597;19;4676;-26
2023/11/06 22:29:24;;;;;;;;;;;21.80;44.80;;;;;;3052858;19;4659;-26
2023/11/06 22:30:25;;;;;;;;;;;21.70;44.80;;;;;;3053702;19;4659;-26
2023/11/06 22:31:27;;;;;;;;;;;21.70;44.80;;;;;;3051100;19;4479;-26
2023/11/06 22:32:28;;;;;;;;;;;21.70;44.80;;;;;;3052731;19;4656;-26
2023/11/06 22:33:29;;;;;;;;;;;21.70;44.80;;;;;;3052422;19;5188;-26
2023/11/06 22:34:29;;;;;;;;;;;21.70;44.80;;;;;;3051641;19;4523;-26
2023/11/06 22:35:30;;;;;;;;;;;21.70;44.80;;;;;;3052822;19;4681;-26
2023/11/06 22:36:30;;;;;;;;;;;21.70;44.80;;;;;;3051393;19;4559;-26
2023/11/06 22:37:31;;;;;;;;;;;21.70;44.80;;;;;;3052289;19;4690;-26
2023/11/06 22:38:34;;;;;;;;;;;21.60;44.80;;;;;;3052857;19;4695;-26
2023/11/06 22:39:35;;;;;;;;;;;21.60;44.80;;;;;;3052043;19;4489;-26
2023/11/06 22:40:35;;;;;;;;;;;21.60;45.00;;;;;;3052239;19;4676;-26
2023/11/06 22:41:36;;;;;;;;;;;21.60;44.90;;;;;;3052054;19;4570;-26
2023/11/06 22:42:37;;;;;;;;;;;21.60;44.90;;;;;;3052454;19;4668;-26
2023/11/06 22:43:38;;;;;;;;;;;21.60;45.00;;;;;;3052378;19;4684;-26
2023/11/06 22:44:39;;;;;;;;;;;21.60;44.90;;;;;;3051120;19;4696;-26
2023/11/06 22:45:39;;;;;;;;;;;21.60;44.90;;;;;;3050900;19;4694;-25
2023/11/06 22:46:40;;;;;;;;;;;21.60;44.90;;;;;;3052761;19;4763;-26
2023/11/06 22:47:41;;;;;;;;;;;21.60;45.00;;;;;;3052387;19;4635;-26
2023/11/06 22:48:41;;;;;;;;;;;21.60;45.00;;;;;;3051565;19;4704;-26
2023/11/06 22:49:42;;;;;;;;;;;21.60;45.00;;;;;;3051057;19;4711;-26
2023/11/06 22:50:44;;;;;;;;;;;21.60;45.00;;;;;;3053800;19;4694;-26
2023/11/06 22:51:44;;;;;;;;;;;21.60;45.10;;;;;;3053539;19;4719;-26
2023/11/06 22:52:45;;;;;;;;;;;21.60;45.00;;;;;;3052699;19;4662;-26
2023/11/06 22:53:45;;;;;;;;;;;21.60;45.10;;;;;;3052782;19;4711;-26
2023/11/06 22:54:46;;;;;;;;;;;21.60;45.00;;;;;;3052893;19;4649;-26
2023/11/06 22:55:47;;;;;;;;;;;21.60;45.00;;;;;;3052537;19;4569;-26
2023/11/06 22:56:47;;;;;;;;;;;21.60;45.00;;;;;;3053032;19;4642;-26
2023/11/06 22:57:48;;;;;;;;;;;21.60;45.00;;;;;;3051100;19;4694;-26
2023/11/06 22:58:49;;;;;;;;;;;21.60;44.90;;;;;;3051104;19;4611;-26
2023/11/06 22:59:49;;;;;;;;;;;21.60;45.00;;;;;;3051754;19;4626;-26
2023/11/06 23:00:50;;;;;;;;;;;21.60;45.10;;;;;;3050646;19;4634;-26
2023/11/06 23:01:51;;;;;;;;;;;21.60;45.00;;;;;;3051566;19;4718;-26
2023/11/06 23:02:55;;;;;;;;;;;21.60;45.00;;;;;;3051522;19;4663;-26
2023/11/06 23:03:55;;;;;;;;;;;21.60;45.10;;;;;;3052898;19;4563;-26
2023/11/06 23:04:56;;;;;;;;;;;21.60;45.00;;;;;;3051613;19;5039;-26
2023/11/06 23:05:57;;;;;;;;;;;21.60;45.10;;;;;;3050728;19;4686;-26
2023/11/06 23:06:58;;;;;;;;;;;21.60;45.70;;;;;;3053236;19;4660;-26
2023/11/06 23:07:58;;;;;;;;;;;21.60;45.10;;;;;;3052976;19;4729;-26
2023/11/06 23:08:59;;;;;;;;;;;21.60;45.10;;;;;;3052643;19;4608;-26
2023/11/06 23:10:00;;;;;;;;;;;21.60;45.10;;;;;;3052955;19;4623;-26
2023/11/06 23:11:02;;;;;;;;;;;21.60;45.10;;;;;;3051606;19;4594;-26
2023/11/06 23:12:04;;;;;;;;;;;21.60;45.10;;;;;;3050918;19;4619;-26
2023/11/06 23:13:08;;;;;;;;;;;21.60;45.10;;;;;;3051107;19;4573;-26
2023/11/06 23:14:09;;;;;;;;;;;21.50;45.10;;;;;;3053166;19;4425;-26
2023/11/06 23:15:10;;;;;;;;;;;21.50;45.10;;;;;;3052258;19;4603;-26
2023/11/06 23:16:11;;;;;;;;;;;21.50;45.10;;;;;;3052766;19;4638;-26
2023/11/06 23:17:12;;;;;;;;;;;21.50;45.10;;;;;;3052912;19;4529;-26
2023/11/06 23:18:13;;;;;;;;;;;21.50;45.10;;;;;;3052094;19;4612;-27
2023/11/06 23:19:15;;;;;;;;;;;21.50;45.10;;;;;;3052098;19;4454;-27
2023/11/06 23:20:19;;;;;;;;;;;21.50;45.10;;;;;;3052097;19;4674;-27
2023/11/06 23:21:20;;;;;;;;;;;21.50;45.10;;;;;;3051016;19;4646;-27
2023/11/06 23:22:21;;;;;;;;;;;21.50;45.20;;;;;;3052148;19;4535;-27
2023/11/06 23:23:22;;;;;;;;;;;21.50;45.10;;;;;;3052761;19;4659;-27
2023/11/06 23:24:23;;;;;;;;;;;21.50;45.20;;;;;;3051620;19;4804;-27
2023/11/06 23:25:23;;;;;;;;;;;21.50;45.20;;;;;;3052430;19;4689;-27
2023/11/06 23:26:25;;;;;;;;;;;21.50;45.10;;;;;;3052730;19;4675;-27
2023/11/06 23:27:25;;;;;;;;;;;21.50;45.20;;;;;;3051157;19;4631;-27
2023/11/06 23:28:26;;;;;;;;;;;21.50;45.10;;;;;;3051835;19;4802;-27
2023/11/06 23:29:27;;;;;;;;;;;21.50;45.10;;;;;;3053088;19;4715;-27
2023/11/06 23:30:27;;;;;;;;;;;21.50;45.20;;;;;;3052136;19;4552;-27
2023/11/06 23:31:28;;;;;;;;;;;21.50;45.20;;;;;;3050924;19;4640;-27
2023/11/06 23:32:29;;;;;;;;;;;21.50;45.20;;;;;;3051557;19;4621;-27
2023/11/06 23:33:30;;;;;;;;;;;21.50;45.20;;;;;;3051703;19;4678;-27
2023/11/06 23:34:31;;;;;;;;;;;21.50;45.20;;;;;;3052403;19;4653;-26
2023/11/06 23:35:34;;;;;;;;;;;21.50;45.30;;;;;;3052750;19;4503;-27
2023/11/06 23:36:35;;;;;;;;;;;21.50;45.20;;;;;;3052127;19;4742;-27
2023/11/06 23:37:36;;;;;;;;;;;21.50;45.30;;;;;;3051041;19;4551;-27
2023/11/06 23:38:36;;;;;;;;;;;21.50;45.90;;;;;;3052921;19;4661;-27
2023/11/06 23:39:37;;;;;;;;;;;21.50;45.30;;;;;;3052929;19;4781;-27
2023/11/06 23:40:38;;;;;;;;;;;21.50;45.30;;;;;;3051245;19;4693;-27
2023/11/06 23:41:38;;;;;;;;;;;21.50;45.30;;;;;;3051363;19;4614;-27
2023/11/06 23:42:39;;;;;;;;;;;21.50;45.30;;;;;;3051506;19;4726;-27
2023/11/06 23:43:40;;;;;;;;;;;21.40;45.30;;;;;;3051683;19;4465;-27
2023/11/06 23:44:41;;;;;;;;;;;21.50;45.30;;;;;;3052752;19;4694;-27
2023/11/06 23:45:43;;;;;;;;;;;21.50;45.30;;;;;;3052040;19;4727;-27
2023/11/06 23:46:43;;;;;;;;;;;21.50;45.30;;;;;;3052428;19;4825;-27
2023/11/06 23:47:44;;;;;;;;;;;21.40;45.30;;;;;;3052707;19;4743;-27
2023/11/06 23:48:46;;;;;;;;;;;21.40;45.30;;;;;;3052461;19;4654;-27
2023/11/06 23:49:49;;;;;;;;;;;21.50;45.30;;;;;;3053140;19;4801;-27
2023/11/06 23:50:50;;;;;;;;;;;21.40;45.30;;;;;;3051964;19;4651;-27
2023/11/06 23:51:50;;;;;;;;;;;21.40;45.30;;;;;;3051663;19;4648;-27
2023/11/06 23:52:51;;;;;;;;;;;21.40;45.30;;;;;;3052903;19;4648;-27
2023/11/06 23:53:52;;;;;;;;;;;21.40;45.30;;;;;;3051808;19;4761;-27
2023/11/06 23:54:53;;;;;;;;;;;21.40;45.30;;;;;;3052947;19;4632;-27
2023/11/06 23:55:54;;;;;;;;;;;21.40;45.30;;;;;;3052537;19;4623;-27
2023/11/06 23:56:56;;;;;;;;;;;21.40;45.40;;;;;;3052025;19;4643;-27
2023/11/06 23:57:57;;;;;;;;;;;21.40;45.30;;;;;;3051918;19;4645;-30
2023/11/06 23:58:58;;;;;;;;;;;21.40;45.30;;;;;;3051119;19;4614;-30
2023/11/06 23:59:58;;;;;;;;;;;21.40;45.30;;;;;;3052350;19;4675;-29
